Monday, December 18, 2017, 11:28 AM EST
Back to Local

KBTP, Butler, Butler County Airport/k W Scholter Field

Location: Renfrew, PA, United States Lat: 40.783
Local Time: 11:28 AM EST (16:28 GMT) Lon: -79.95
Time Zone: US/Eastern Elev: 1246 ft

Show me the last for .
Show Coded

Time T Td Feel RH Dir Speed Gust Alt SLP Vis Weather Sky Remarks
2017-12-18 10:56 38 35 33 89 230° 6 - 30.04 30.09 10 OVC009 None
2017-12-18 09:56 37 34 30 88 220° 9 - 30.05 30.09 10 OVC009 None
2017-12-18 08:56 36 33 31 89 210° 6 - 30.06 30.11 10 OVC009 None
2017-12-18 08:53 36 34 31 93 200° 6 - 30.06 - 10 OVC009 None
2017-12-18 08:39 36 34 32 93 210° 5 - 30.06 - 10 BKN011 OVC046 None
2017-12-18 07:56 36 32 30 85 190° 7 - 30.05 30.09 10 OVC046 None
2017-12-18 06:56 36 32 32 85 190° 5 - 30.06 30.11 10 OVC044 6-hr Min Temp (7am): 34.0°F
6-hr Max Temp (7am): 37.0°F
2017-12-18 05:56 36 31 32 81 200° 5 - 30.06 30.10 10 OVC050 None
2017-12-18 04:56 36 31 30 81 200° 7 - 30.06 30.11 10 SCT045 None
2017-12-18 03:56 36 31 31 81 200° 6 - 30.06 30.11 10 OVC037 None
2017-12-18 02:56 36 31 30 81 190° 7 - 30.06 30.11 10 OVC037 None
2017-12-18 01:56 34 32 31 92 170° 3 - 30.06 30.11 9 BKN039 BKN050 OVC080 None
2017-12-18 00:56 35 33 - 92 - Calm - 30.09 30.14 8 BKN045 OVC055 6-hr Precip Total (1am): 0.00"
6-hr Min Temp (1am): 34.0°F
6-hr Max Temp (1am): 36.0°F
2017-12-17 23:56 35 33 - 92 - Calm - 30.09 30.14 9 FEW050 OVC075 24-hr Min Temp (12am): 21.0°F
24-hr Max Temp (12am): 39.0°F
2017-12-17 22:56 36 33 - 89 - Calm - 30.10 30.15 9 OVC070 None
2017-12-17 21:56 36 34 32 92 180° 5 - 30.09 30.14 9 BKN075 OVC090 6-hr Precip Total (10pm): 0.00"
2017-12-17 20:56 36 34 33 92 250° 3 - 30.10 30.15 9 BKN050 BKN060 OVC070 1-hr Precip Total: Trace
2017-12-17 19:56 36 34 29 92 170° 9 - 30.09 30.14 10 UP OVC045 1-hr Precip Total: Trace
2017-12-17 18:56 36 33 30 89 180° 7 - 30.10 30.16 10 UP SCT049 BKN055 OVC080 1-hr Precip Total: Trace
6-hr Precip Total (7pm): 0.00"
6-hr Min Temp (7pm): 36.0°F
6-hr Max Temp (7pm): 39.0°F
2017-12-17 17:56 38 30 33 72 200° 7 - 30.12 30.17 10 -RA SCT048 OVC070 1-hr Precip Total: Trace
2017-12-17 16:56 38 29 34 69 180° 5 - 30.13 30.18 10 SCT100 None
2017-12-17 15:56 38 29 33 69 180° 6 - 30.12 30.18 10 BKN090 None
2017-12-17 14:56 38 28 36 67 140° 3 - 30.10 30.15 10 SCT100 SCT120 None
2017-12-17 13:56 38 28 36 67 150° 3 - 30.11 30.16 10 CLR None
2017-12-17 12:56 38 28 36 67 160° 3 - 30.14 30.20 10 CLR 6-hr Min Temp (1pm): 25.0°F
6-hr Max Temp (1pm): 37.9°F
2017-12-17 11:56 36 28 32 72 160° 5 - 30.17 30.23 10 CLR None

Support USWX by starting your Amazon purchase here.